Terminal Aerodrome Forecast
Issued by NWS Sioux Falls, SD

Home | Current Version | Previous Version | Text Only | Print | Product List | Glossary On
Versions: 1 2 3 4 5 6 7 8 9 10 11 12 13 14 15 16 17 18 19
045
FTUS43 KFSD 181128
TAFFSD
TAF
KFSD 181128Z 1812/1912 17019G29KT P6SM BKN200 WS020/20055KT
     FM181500 20019G29KT P6SM BKN150 WS020/21055KT
     FM181800 21017G25KT P6SM BKN200
     FM182000 25013KT P6SM BKN200
     FM182200 30011KT P6SM BKN200
     FM182300 33010KT P6SM BKN150
     FM190200 01015KT P6SM BKN015=

USA.gov is the U.S. government's official web portal to all federal, state and local government web resources and services.